sensor_id;sensor_type;location;lat;lon;timestamp;pressure;altitude;pressure_sealevel;temperature;humidity
6194;BME280;3130;41.564;23.280;2023-04-15T00:02:18;98168.06;;;8.50;nan
6194;BME280;3130;41.564;23.280;2023-04-15T00:04:45;98171.13;;;8.55;nan
6194;BME280;3130;41.564;23.280;2023-04-15T00:07:13;98167.97;;;8.52;nan
6194;BME280;3130;41.564;23.280;2023-04-15T00:09:42;98156.78;;;8.40;nan
6194;BME280;3130;41.564;23.280;2023-04-15T00:12:09;98166.47;;;8.35;nan
6194;BME280;3130;41.564;23.280;2023-04-15T00:14:36;98165.34;;;8.39;nan
6194;BME280;3130;41.564;23.280;2023-04-15T00:17:03;98166.19;;;8.40;nan
6194;BME280;3130;41.564;23.280;2023-04-15T00:19:31;98150.09;;;8.25;nan
6194;BME280;3130;41.564;23.280;2023-04-15T00:21:59;98181.53;;;8.52;nan
6194;BME280;3130;41.564;23.280;2023-04-15T00:24:25;98180.53;;;8.55;nan
6194;BME280;3130;41.564;23.280;2023-04-15T00:26:55;98186.09;;;8.61;nan
6194;BME280;3130;41.564;23.280;2023-04-15T00:29:22;98187.13;;;8.71;nan
6194;BME280;3130;41.564;23.280;2023-04-15T00:31:49;98185.63;;;8.81;nan
6194;BME280;3130;41.564;23.280;2023-04-15T00:34:16;98175.41;;;8.81;nan
6194;BME280;3130;41.564;23.280;2023-04-15T00:36:43;98192.50;;;8.93;nan
6194;BME280;3130;41.564;23.280;2023-04-15T00:39:10;98173.56;;;8.83;nan
6194;BME280;3130;41.564;23.280;2023-04-15T00:41:37;98189.63;;;8.85;nan
6194;BME280;3130;41.564;23.280;2023-04-15T00:44:06;98197.41;;;8.96;nan
6194;BME280;3130;41.564;23.280;2023-04-15T00:46:35;98186.81;;;9.02;nan
6194;BME280;3130;41.564;23.280;2023-04-15T00:49:03;98191.09;;;9.14;nan
6194;BME280;3130;41.564;23.280;2023-04-15T00:51:31;98198.16;;;9.23;nan
6194;BME280;3130;41.564;23.280;2023-04-15T00:54:00;98191.72;;;9.17;nan
6194;BME280;3130;41.564;23.280;2023-04-15T00:56:28;98176.84;;;8.98;nan
6194;BME280;3130;41.564;23.280;2023-04-15T00:58:56;98206.84;;;9.08;nan
6194;BME280;3130;41.564;23.280;2023-04-15T01:01:25;98196.72;;;9.06;nan
6194;BME280;3130;41.564;23.280;2023-04-15T01:03:56;98203.38;;;9.09;nan
6194;BME280;3130;41.564;23.280;2023-04-15T01:06:24;98206.97;;;9.19;nan
6194;BME280;3130;41.564;23.280;2023-04-15T01:08:52;98214.88;;;9.28;nan
6194;BME280;3130;41.564;23.280;2023-04-15T01:11:19;98209.94;;;9.25;nan
6194;BME280;3130;41.564;23.280;2023-04-15T01:13:46;98204.13;;;9.23;nan
6194;BME280;3130;41.564;23.280;2023-04-15T01:16:14;98209.81;;;9.02;nan
6194;BME280;3130;41.564;23.280;2023-04-15T01:18:43;98154.94;;;8.69;nan
6194;BME280;3130;41.564;23.280;2023-04-15T01:21:11;98200.00;;;9.08;nan
6194;BME280;3130;41.564;23.280;2023-04-15T01:23:38;98193.25;;;9.07;nan
6194;BME280;3130;41.564;23.280;2023-04-15T01:26:07;98204.72;;;9.27;nan
6194;BME280;3130;41.564;23.280;2023-04-15T01:28:34;98211.47;;;9.28;nan
6194;BME280;3130;41.564;23.280;2023-04-15T01:31:09;98199.16;;;9.08;nan
6194;BME280;3130;41.564;23.280;2023-04-15T01:33:37;98213.44;;;9.24;nan
6194;BME280;3130;41.564;23.280;2023-04-15T01:36:05;98200.41;;;9.02;nan
6194;BME280;3130;41.564;23.280;2023-04-15T01:38:34;98204.06;;;8.98;nan
6194;BME280;3130;41.564;23.280;2023-04-15T01:41:02;98184.25;;;9.02;nan
6194;BME280;3130;41.564;23.280;2023-04-15T01:43:30;98223.31;;;9.16;nan
6194;BME280;3130;41.564;23.280;2023-04-15T01:45:57;98228.22;;;8.95;nan
6194;BME280;3130;41.564;23.280;2023-04-15T01:48:24;98222.34;;;8.80;nan
6194;BME280;3130;41.564;23.280;2023-04-15T01:50:53;98208.94;;;8.89;nan
6194;BME280;3130;41.564;23.280;2023-04-15T01:53:22;98215.66;;;9.04;nan
6194;BME280;3130;41.564;23.280;2023-04-15T01:55:49;98204.75;;;8.88;nan
6194;BME280;3130;41.564;23.280;2023-04-15T01:58:16;98222.38;;;9.05;nan
6194;BME280;3130;41.564;23.280;2023-04-15T02:00:45;98240.72;;;9.11;nan
6194;BME280;3130;41.564;23.280;2023-04-15T02:03:12;98239.72;;;9.26;nan
6194;BME280;3130;41.564;23.280;2023-04-15T02:05:39;98243.72;;;9.43;nan
6194;BME280;3130;41.564;23.280;2023-04-15T02:08:06;98242.41;;;9.50;nan
6194;BME280;3130;41.564;23.280;2023-04-15T02:10:33;98238.22;;;9.61;nan
6194;BME280;3130;41.564;23.280;2023-04-15T02:13:00;98239.88;;;9.75;nan
6194;BME280;3130;41.564;23.280;2023-04-15T02:15:27;98241.78;;;9.84;nan
6194;BME280;3130;41.564;23.280;2023-04-15T02:17:56;98235.84;;;9.96;nan
6194;BME280;3130;41.564;23.280;2023-04-15T02:20:25;98243.94;;;10.02;nan
6194;BME280;3130;41.564;23.280;2023-04-15T02:22:52;98249.31;;;9.99;nan
6194;BME280;3130;41.564;23.280;2023-04-15T02:25:19;98239.44;;;9.93;nan
6194;BME280;3130;41.564;23.280;2023-04-15T02:27:46;98220.72;;;9.80;nan
6194;BME280;3130;41.564;23.280;2023-04-15T02:30:13;98246.78;;;9.98;nan
6194;BME280;3130;41.564;23.280;2023-04-15T02:32:40;98247.47;;;10.01;nan
6194;BME280;3130;41.564;23.280;2023-04-15T02:35:10;98249.78;;;10.04;nan
6194;BME280;3130;41.564;23.280;2023-04-15T02:37:37;98249.50;;;10.08;nan
6194;BME280;3130;41.564;23.280;2023-04-15T02:40:08;98244.66;;;10.04;nan
6194;BME280;3130;41.564;23.280;2023-04-15T02:42:37;98262.97;;;10.23;nan
6194;BME280;3130;41.564;23.280;2023-04-15T02:45:05;98258.34;;;10.28;nan
6194;BME280;3130;41.564;23.280;2023-04-15T02:47:32;98250.34;;;10.32;nan
6194;BME280;3130;41.564;23.280;2023-04-15T02:50:01;98253.75;;;10.33;nan
6194;BME280;3130;41.564;23.280;2023-04-15T02:52:29;98255.78;;;10.28;nan
6194;BME280;3130;41.564;23.280;2023-04-15T02:54:57;98241.06;;;9.82;nan
6194;BME280;3130;41.564;23.280;2023-04-15T02:57:25;98258.91;;;10.08;nan
6194;BME280;3130;41.564;23.280;2023-04-15T02:59:53;98247.22;;;10.04;nan
6194;BME280;3130;41.564;23.280;2023-04-15T03:02:20;98274.91;;;9.99;nan
6194;BME280;3130;41.564;23.280;2023-04-15T03:04:47;98264.75;;;9.73;nan
6194;BME280;3130;41.564;23.280;2023-04-15T03:07:16;98269.41;;;9.29;nan
6194;BME280;3130;41.564;23.280;2023-04-15T03:09:44;98236.13;;;8.78;nan
6194;BME280;3130;41.564;23.280;2023-04-15T03:12:12;98266.50;;;9.08;nan
6194;BME280;3130;41.564;23.280;2023-04-15T03:14:39;98260.06;;;9.15;nan
6194;BME280;3130;41.564;23.280;2023-04-15T03:17:06;98264.78;;;9.21;nan
6194;BME280;3130;41.564;23.280;2023-04-15T03:19:33;98258.81;;;9.08;nan
6194;BME280;3130;41.564;23.280;2023-04-15T03:22:00;98252.16;;;9.06;nan
6194;BME280;3130;41.564;23.280;2023-04-15T03:24:27;98268.94;;;9.10;nan
6194;BME280;3130;41.564;23.280;2023-04-15T03:26:56;98263.53;;;9.14;nan
6194;BME280;3130;41.564;23.280;2023-04-15T03:29:23;98270.50;;;9.25;nan
6194;BME280;3130;41.564;23.280;2023-04-15T03:31:51;98264.25;;;9.16;nan
6194;BME280;3130;41.564;23.280;2023-04-15T03:34:18;98271.19;;;9.14;nan
6194;BME280;3130;41.564;23.280;2023-04-15T03:36:46;98273.97;;;9.24;nan
6194;BME280;3130;41.564;23.280;2023-04-15T03:39:13;98282.38;;;9.26;nan
6194;BME280;3130;41.564;23.280;2023-04-15T03:41:40;98289.13;;;9.27;nan
6194;BME280;3130;41.564;23.280;2023-04-15T03:44:08;98297.03;;;9.36;nan
6194;BME280;3130;41.564;23.280;2023-04-15T03:46:35;98300.75;;;9.45;nan
6194;BME280;3130;41.564;23.280;2023-04-15T03:49:02;98281.66;;;9.24;nan
6194;BME280;3130;41.564;23.280;2023-04-15T03:51:29;98293.59;;;9.11;nan
6194;BME280;3130;41.564;23.280;2023-04-15T03:53:57;98275.16;;;9.06;nan
6194;BME280;3130;41.564;23.280;2023-04-15T03:56:24;98294.03;;;9.17;nan
6194;BME280;3130;41.564;23.280;2023-04-15T03:58:51;98294.38;;;9.25;nan
6194;BME280;3130;41.564;23.280;2023-04-15T04:01:19;98297.94;;;9.35;nan
6194;BME280;3130;41.564;23.280;2023-04-15T04:03:46;98304.75;;;9.49;nan
6194;BME280;3130;41.564;23.280;2023-04-15T04:06:14;98307.63;;;9.57;nan
6194;BME280;3130;41.564;23.280;2023-04-15T04:08:41;98315.63;;;9.65;nan
6194;BME280;3130;41.564;23.280;2023-04-15T04:11:08;98318.41;;;9.74;nan
6194;BME280;3130;41.564;23.280;2023-04-15T04:13:35;98277.34;;;9.63;nan
6194;BME280;3130;41.564;23.280;2023-04-15T04:16:02;98315.66;;;9.90;nan
6194;BME280;3130;41.564;23.280;2023-04-15T04:18:31;98319.25;;;10.00;nan
6194;BME280;3130;41.564;23.280;2023-04-15T04:20:59;98329.19;;;10.04;nan
6194;BME280;3130;41.564;23.280;2023-04-15T04:23:26;98324.38;;;10.12;nan
6194;BME280;3130;41.564;23.280;2023-04-15T04:25:53;98344.88;;;10.24;nan
6194;BME280;3130;41.564;23.280;2023-04-15T04:28:20;98320.38;;;10.08;nan
6194;BME280;3130;41.564;23.280;2023-04-15T04:30:48;98351.84;;;10.22;nan
6194;BME280;3130;41.564;23.280;2023-04-15T04:33:15;98361.38;;;10.33;nan
6194;BME280;3130;41.564;23.280;2023-04-15T04:35:43;98366.19;;;10.37;nan
6194;BME280;3130;41.564;23.280;2023-04-15T04:38:10;98376.03;;;10.43;nan
6194;BME280;3130;41.564;23.280;2023-04-15T04:40:37;98373.53;;;10.42;nan
6194;BME280;3130;41.564;23.280;2023-04-15T04:43:04;98378.59;;;10.43;nan
6194;BME280;3130;41.564;23.280;2023-04-15T04:45:31;98339.63;;;10.13;nan
6194;BME280;3130;41.564;23.280;2023-04-15T04:47:59;98378.91;;;10.26;nan
6194;BME280;3130;41.564;23.280;2023-04-15T04:50:26;98358.91;;;10.06;nan
6194;BME280;3130;41.564;23.280;2023-04-15T04:52:54;98385.22;;;10.21;nan
6194;BME280;3130;41.564;23.280;2023-04-15T04:55:21;98362.59;;;10.15;nan
6194;BME280;3130;41.564;23.280;2023-04-15T04:57:48;98382.06;;;10.30;nan
6194;BME280;3130;41.564;23.280;2023-04-15T05:00:16;98369.25;;;10.17;nan
6194;BME280;3130;41.564;23.280;2023-04-15T05:02:44;98381.75;;;10.47;nan
6194;BME280;3130;41.564;23.280;2023-04-15T05:05:11;98343.22;;;10.36;nan
6194;BME280;3130;41.564;23.280;2023-04-15T05:07:38;98384.38;;;10.70;nan
6194;BME280;3130;41.564;23.280;2023-04-15T05:10:08;98394.50;;;10.84;nan
6194;BME280;3130;41.564;23.280;2023-04-15T05:12:35;98404.22;;;10.92;nan
6194;BME280;3130;41.564;23.280;2023-04-15T05:15:03;98382.84;;;10.80;nan
6194;BME280;3130;41.564;23.280;2023-04-15T05:17:31;98410.41;;;10.89;nan
6194;BME280;3130;41.564;23.280;2023-04-15T05:19:59;98393.84;;;10.70;nan
6194;BME280;3130;41.564;23.280;2023-04-15T05:22:26;98415.88;;;10.72;nan
6194;BME280;3130;41.564;23.280;2023-04-15T05:24:53;98412.38;;;10.73;nan
6194;BME280;3130;41.564;23.280;2023-04-15T05:27:22;98411.03;;;10.80;nan
6194;BME280;3130;41.564;23.280;2023-04-15T05:29:49;98416.13;;;10.93;nan
6194;BME280;3130;41.564;23.280;2023-04-15T05:32:16;98422.31;;;10.90;nan
6194;BME280;3130;41.564;23.280;2023-04-15T05:34:43;98367.91;;;10.49;nan
6194;BME280;3130;41.564;23.280;2023-04-15T05:37:10;98365.97;;;10.40;nan
6194;BME280;3130;41.564;23.280;2023-04-15T05:39:37;98435.25;;;10.76;nan
6194;BME280;3130;41.564;23.280;2023-04-15T05:42:04;98372.22;;;10.24;nan
6194;BME280;3130;41.564;23.280;2023-04-15T05:44:33;98443.16;;;10.73;nan
6194;BME280;3130;41.564;23.280;2023-04-15T05:47:00;98418.75;;;10.55;nan
6194;BME280;3130;41.564;23.280;2023-04-15T05:49:28;98441.19;;;10.77;nan
6194;BME280;3130;41.564;23.280;2023-04-15T05:51:55;98441.63;;;10.71;nan
6194;BME280;3130;41.564;23.280;2023-04-15T05:54:22;98447.03;;;10.79;nan
6194;BME280;3130;41.564;23.280;2023-04-15T05:56:49;98440.19;;;10.79;nan
6194;BME280;3130;41.564;23.280;2023-04-15T05:59:16;98419.97;;;10.75;nan
6194;BME280;3130;41.564;23.280;2023-04-15T06:01:45;98446.88;;;11.05;nan
6194;BME280;3130;41.564;23.280;2023-04-15T06:04:12;98418.81;;;10.91;nan
6194;BME280;3130;41.564;23.280;2023-04-15T06:06:39;98448.50;;;11.18;nan
6194;BME280;3130;41.564;23.280;2023-04-15T06:09:07;98442.44;;;11.19;nan
6194;BME280;3130;41.564;23.280;2023-04-15T06:11:34;98424.81;;;11.15;nan
6194;BME280;3130;41.564;23.280;2023-04-15T06:14:01;98452.03;;;11.41;nan
6194;BME280;3130;41.564;23.280;2023-04-15T06:16:28;98429.84;;;11.40;nan
6194;BME280;3130;41.564;23.280;2023-04-15T06:18:56;98455.00;;;11.71;nan
6194;BME280;3130;41.564;23.280;2023-04-15T06:21:23;98453.44;;;11.81;nan
6194;BME280;3130;41.564;23.280;2023-04-15T06:23:52;98443.97;;;11.81;nan
6194;BME280;3130;41.564;23.280;2023-04-15T06:26:19;98464.81;;;12.00;nan
6194;BME280;3130;41.564;23.280;2023-04-15T06:28:46;98364.91;;;11.50;nan
6194;BME280;3130;41.564;23.280;2023-04-15T06:31:13;98466.06;;;12.18;nan
6194;BME280;3130;41.564;23.280;2023-04-15T06:33:40;98464.31;;;12.18;nan
6194;BME280;3130;41.564;23.280;2023-04-15T06:36:09;98411.25;;;11.49;nan
6194;BME280;3130;41.564;23.280;2023-04-15T06:38:35;98456.03;;;11.92;nan
6194;BME280;3130;41.564;23.280;2023-04-15T06:41:03;98443.91;;;11.94;nan
6194;BME280;3130;41.564;23.280;2023-04-15T06:43:31;98460.78;;;11.85;nan
6194;BME280;3130;41.564;23.280;2023-04-15T06:45:58;98373.00;;;11.33;nan
6194;BME280;3130;41.564;23.280;2023-04-15T06:48:25;98474.41;;;11.98;nan
6194;BME280;3130;41.564;23.280;2023-04-15T06:50:52;98461.84;;;12.17;nan
6194;BME280;3130;41.564;23.280;2023-04-15T06:53:20;98408.13;;;11.80;nan
6194;BME280;3130;41.564;23.280;2023-04-15T06:55:48;98456.84;;;12.26;nan
6194;BME280;3130;41.564;23.280;2023-04-15T06:58:15;98483.84;;;12.32;nan
6194;BME280;3130;41.564;23.280;2023-04-15T07:00:42;98470.84;;;12.22;nan
6194;BME280;3130;41.564;23.280;2023-04-15T07:03:11;98485.28;;;12.36;nan
6194;BME280;3130;41.564;23.280;2023-04-15T07:05:39;98487.44;;;12.18;nan
6194;BME280;3130;41.564;23.280;2023-04-15T07:08:07;98489.75;;;12.10;nan
6194;BME280;3130;41.564;23.280;2023-04-15T07:10:35;98468.94;;;12.03;nan
6194;BME280;3130;41.564;23.280;2023-04-15T07:13:03;98498.34;;;12.33;nan
6194;BME280;3130;41.564;23.280;2023-04-15T07:15:30;98451.47;;;12.18;nan
6194;BME280;3130;41.564;23.280;2023-04-15T07:17:57;98499.09;;;12.46;nan
6194;BME280;3130;41.564;23.280;2023-04-15T07:20:24;98458.00;;;12.22;nan
6194;BME280;3130;41.564;23.280;2023-04-15T07:22:51;98408.41;;;11.99;nan
6194;BME280;3130;41.564;23.280;2023-04-15T07:25:18;98506.25;;;12.53;nan
6194;BME280;3130;41.564;23.280;2023-04-15T07:27:47;98479.81;;;12.51;nan
6194;BME280;3130;41.564;23.280;2023-04-15T07:30:14;98509.09;;;12.72;nan
6194;BME280;3130;41.564;23.280;2023-04-15T07:32:41;98518.44;;;12.73;nan
6194;BME280;3130;41.564;23.280;2023-04-15T07:35:09;98480.06;;;12.59;nan
6194;BME280;3130;41.564;23.280;2023-04-15T07:37:36;98506.44;;;12.96;nan
6194;BME280;3130;41.564;23.280;2023-04-15T07:40:05;98520.97;;;13.29;nan
6194;BME280;3130;41.564;23.280;2023-04-15T07:42:33;98513.09;;;13.53;nan
6194;BME280;3130;41.564;23.280;2023-04-15T07:45:03;98527.81;;;13.62;nan
6194;BME280;3130;41.564;23.280;2023-04-15T07:47:30;98531.97;;;13.96;nan
6194;BME280;3130;41.564;23.280;2023-04-15T07:49:57;98529.38;;;14.38;nan
6194;BME280;3130;41.564;23.280;2023-04-15T07:52:24;98528.25;;;15.52;nan
6194;BME280;3130;41.564;23.280;2023-04-15T07:54:51;98522.13;;;16.39;nan
6194;BME280;3130;41.564;23.280;2023-04-15T07:57:18;98519.31;;;17.34;nan
6194;BME280;3130;41.564;23.280;2023-04-15T07:59:46;98519.03;;;18.43;nan
6194;BME280;3130;41.564;23.280;2023-04-15T08:02:14;98523.06;;;19.72;nan
6194;BME280;3130;41.564;23.280;2023-04-15T08:04:42;98532.63;;;20.77;nan
6194;BME280;3130;41.564;23.280;2023-04-15T08:07:09;98459.53;;;20.54;nan
6194;BME280;3130;41.564;23.280;2023-04-15T08:09:36;98531.84;;;20.44;nan
6194;BME280;3130;41.564;23.280;2023-04-15T08:12:03;98474.19;;;20.08;nan
6194;BME280;3130;41.564;23.280;2023-04-15T08:14:32;98514.44;;;19.72;nan
6194;BME280;3130;41.564;23.280;2023-04-15T08:16:59;98509.97;;;19.15;nan
6194;BME280;3130;41.564;23.280;2023-04-15T08:19:27;98488.56;;;18.70;nan
6194;BME280;3130;41.564;23.280;2023-04-15T08:21:55;98508.56;;;18.18;nan
6194;BME280;3130;41.564;23.280;2023-04-15T08:24:22;98491.94;;;18.11;nan
6194;BME280;3130;41.564;23.280;2023-04-15T08:26:50;98489.34;;;18.11;nan
6194;BME280;3130;41.564;23.280;2023-04-15T08:29:17;98376.94;;;16.96;nan
6194;BME280;3130;41.564;23.280;2023-04-15T08:31:45;98489.72;;;17.36;nan
6194;BME280;3130;41.564;23.280;2023-04-15T08:34:12;98473.50;;;17.52;nan
6194;BME280;3130;41.564;23.280;2023-04-15T08:36:41;98465.84;;;17.77;nan
6194;BME280;3130;41.564;23.280;2023-04-15T08:39:09;98466.38;;;17.81;nan
6194;BME280;3130;41.564;23.280;2023-04-15T08:41:39;98458.59;;;17.81;nan
6194;BME280;3130;41.564;23.280;2023-04-15T08:44:08;98465.09;;;17.40;nan
6194;BME280;3130;41.564;23.280;2023-04-15T08:46:35;98463.81;;;17.27;nan
6194;BME280;3130;41.564;23.280;2023-04-15T08:49:03;98467.25;;;16.82;nan
6194;BME280;3130;41.564;23.280;2023-04-15T08:51:31;98466.38;;;16.54;nan
6194;BME280;3130;41.564;23.280;2023-04-15T08:54:01;98465.03;;;16.41;nan
6194;BME280;3130;41.564;23.280;2023-04-15T08:56:30;98433.56;;;16.36;nan
6194;BME280;3130;41.564;23.280;2023-04-15T08:58:57;98456.72;;;16.09;nan
6194;BME280;3130;41.564;23.280;2023-04-15T09:01:25;98437.94;;;15.88;nan
6194;BME280;3130;41.564;23.280;2023-04-15T09:03:52;98460.13;;;16.10;nan
6194;BME280;3130;41.564;23.280;2023-04-15T09:06:20;98453.19;;;16.01;nan
6194;BME280;3130;41.564;23.280;2023-04-15T09:08:48;98429.09;;;16.10;nan
6194;BME280;3130;41.564;23.280;2023-04-15T09:11:16;98462.72;;;16.47;nan
6194;BME280;3130;41.564;23.280;2023-04-15T09:13:44;98455.50;;;16.22;nan
6194;BME280;3130;41.564;23.280;2023-04-15T09:16:13;98451.56;;;16.18;nan
6194;BME280;3130;41.564;23.280;2023-04-15T09:18:40;98457.41;;;16.02;nan
6194;BME280;3130;41.564;23.280;2023-04-15T09:21:08;98442.44;;;15.96;nan
6194;BME280;3130;41.564;23.280;2023-04-15T09:23:37;98445.69;;;16.26;nan
6194;BME280;3130;41.564;23.280;2023-04-15T09:26:05;98451.66;;;16.26;nan
6194;BME280;3130;41.564;23.280;2023-04-15T09:28:40;98448.97;;;16.37;nan
6194;BME280;3130;41.564;23.280;2023-04-15T09:31:07;98446.81;;;16.42;nan
6194;BME280;3130;41.564;23.280;2023-04-15T09:33:35;98444.59;;;16.47;nan
6194;BME280;3130;41.564;23.280;2023-04-15T09:36:03;98424.78;;;16.65;nan
6194;BME280;3130;41.564;23.280;2023-04-15T09:38:31;98426.16;;;16.96;nan
6194;BME280;3130;41.564;23.280;2023-04-15T09:40:58;98431.81;;;17.18;nan
6194;BME280;3130;41.564;23.280;2023-04-15T09:43:39;98440.22;;;17.30;nan
6194;BME280;3130;41.564;23.280;2023-04-15T09:46:06;98440.19;;;17.03;nan
6194;BME280;3130;41.564;23.280;2023-04-15T09:48:33;98436.34;;;17.07;nan
6194;BME280;3130;41.564;23.280;2023-04-15T09:51:00;98436.28;;;16.90;nan
6194;BME280;3130;41.564;23.280;2023-04-15T09:53:27;98422.38;;;16.91;nan
6194;BME280;3130;41.564;23.280;2023-04-15T09:55:56;98421.47;;;17.09;nan
6194;BME280;3130;41.564;23.280;2023-04-15T09:58:25;98422.72;;;17.32;nan
6194;BME280;3130;41.564;23.280;2023-04-15T10:00:56;98401.75;;;17.25;nan
6194;BME280;3130;41.564;23.280;2023-04-15T10:03:24;98412.34;;;17.59;nan
6194;BME280;3130;41.564;23.280;2023-04-15T10:05:53;98409.31;;;17.81;nan
6194;BME280;3130;41.564;23.280;2023-04-15T10:08:22;98386.91;;;17.62;nan
6194;BME280;3130;41.564;23.280;2023-04-15T10:10:50;98413.88;;;17.87;nan
6194;BME280;3130;41.564;23.280;2023-04-15T10:13:18;98417.81;;;17.91;nan
6194;BME280;3130;41.564;23.280;2023-04-15T10:15:53;98414.78;;;17.78;nan
6194;BME280;3130;41.564;23.280;2023-04-15T10:18:25;98302.31;;;17.09;nan
6194;BME280;3130;41.564;23.280;2023-04-15T10:20:53;98420.50;;;17.99;nan
6194;BME280;3130;41.564;23.280;2023-04-15T10:23:21;98416.84;;;17.92;nan
6194;BME280;3130;41.564;23.280;2023-04-15T10:25:51;98408.41;;;17.90;nan
6194;BME280;3130;41.564;23.280;2023-04-15T10:28:18;98406.22;;;18.03;nan
6194;BME280;3130;41.564;23.280;2023-04-15T10:30:47;98391.28;;;17.97;nan
6194;BME280;3130;41.564;23.280;2023-04-15T10:33:16;98412.34;;;17.94;nan
6194;BME280;3130;41.564;23.280;2023-04-15T10:35:47;98387.94;;;17.52;nan
6194;BME280;3130;41.564;23.280;2023-04-15T10:38:32;98392.47;;;17.85;nan
6194;BME280;3130;41.564;23.280;2023-04-15T10:41:17;98400.25;;;18.02;nan
6194;BME280;3130;41.564;23.280;2023-04-15T10:43:49;98409.78;;;18.02;nan
6194;BME280;3130;41.564;23.280;2023-04-15T10:46:33;98411.53;;;18.18;nan
6194;BME280;3130;41.564;23.280;2023-04-15T10:49:06;98410.91;;;18.17;nan
6194;BME280;3130;41.564;23.280;2023-04-15T10:51:38;98393.06;;;18.21;nan
6194;BME280;3130;41.564;23.280;2023-04-15T10:54:08;98406.72;;;18.41;nan
6194;BME280;3130;41.564;23.280;2023-04-15T10:56:40;98402.03;;;18.44;nan
6194;BME280;3130;41.564;23.280;2023-04-15T10:59:08;98409.63;;;18.63;nan
6194;BME280;3130;41.564;23.280;2023-04-15T11:01:53;98399.44;;;18.44;nan
6194;BME280;3130;41.564;23.280;2023-04-15T11:04:52;98407.81;;;18.64;nan
6194;BME280;3130;41.564;23.280;2023-04-15T11:07:47;98390.38;;;18.48;nan
6194;BME280;3130;41.564;23.280;2023-04-15T11:13:23;98407.88;;;19.05;nan
6194;BME280;3130;41.564;23.280;2023-04-15T11:15:55;98407.19;;;19.28;nan
6194;BME280;3130;41.564;23.280;2023-04-15T11:18:26;98415.81;;;19.45;nan
6194;BME280;3130;41.564;23.280;2023-04-15T11:20:55;98398.31;;;19.55;nan
6194;BME280;3130;41.564;23.280;2023-04-15T11:23:30;98411.59;;;19.36;nan
6194;BME280;3130;41.564;23.280;2023-04-15T11:25:59;98353.63;;;19.10;nan
6194;BME280;3130;41.564;23.280;2023-04-15T11:28:27;98396.00;;;19.44;nan
6194;BME280;3130;41.564;23.280;2023-04-15T11:30:55;98414.75;;;19.63;nan
6194;BME280;3130;41.564;23.280;2023-04-15T11:33:23;98388.03;;;19.53;nan
6194;BME280;3130;41.564;23.280;2023-04-15T11:35:52;98415.06;;;19.68;nan
6194;BME280;3130;41.564;23.280;2023-04-15T11:38:20;98422.72;;;19.70;nan
6194;BME280;3130;41.564;23.280;2023-04-15T11:40:50;98403.53;;;19.71;nan
6194;BME280;3130;41.564;23.280;2023-04-15T11:43:19;98364.91;;;19.34;nan
6194;BME280;3130;41.564;23.280;2023-04-15T11:45:48;98355.41;;;19.10;nan
6194;BME280;3130;41.564;23.280;2023-04-15T11:48:16;98413.03;;;19.30;nan
6194;BME280;3130;41.564;23.280;2023-04-15T11:50:44;98401.47;;;19.25;nan
6194;BME280;3130;41.564;23.280;2023-04-15T11:53:12;98399.06;;;19.39;nan
6194;BME280;3130;41.564;23.280;2023-04-15T11:55:44;98338.03;;;19.02;nan
6194;BME280;3130;41.564;23.280;2023-04-15T11:58:14;98393.88;;;19.39;nan
6194;BME280;3130;41.564;23.280;2023-04-15T12:00:46;98383.31;;;19.49;nan
6194;BME280;3130;41.564;23.280;2023-04-15T12:03:17;98383.66;;;19.62;nan
6194;BME280;3130;41.564;23.280;2023-04-15T12:06:10;98383.19;;;19.90;nan
6194;BME280;3130;41.564;23.280;2023-04-15T12:08:58;98382.41;;;20.22;nan
6194;BME280;3130;41.564;23.280;2023-04-15T12:11:43;98384.34;;;20.43;nan
6194;BME280;3130;41.564;23.280;2023-04-15T12:14:20;98375.00;;;20.57;nan
6194;BME280;3130;41.564;23.280;2023-04-15T12:16:48;98300.38;;;20.26;nan
6194;BME280;3130;41.564;23.280;2023-04-15T12:19:19;98371.88;;;20.77;nan
6194;BME280;3130;41.564;23.280;2023-04-15T12:21:49;98366.19;;;20.82;nan
6194;BME280;3130;41.564;23.280;2023-04-15T12:24:19;98364.69;;;20.87;nan
6194;BME280;3130;41.564;23.280;2023-04-15T12:26:49;98369.75;;;20.89;nan
6194;BME280;3130;41.564;23.280;2023-04-15T12:29:19;98294.50;;;20.31;nan
6194;BME280;3130;41.564;23.280;2023-04-15T12:31:48;98377.31;;;20.44;nan
6194;BME280;3130;41.564;23.280;2023-04-15T12:34:16;98372.97;;;20.29;nan
6194;BME280;3130;41.564;23.280;2023-04-15T12:36:44;98369.03;;;20.40;nan
6194;BME280;3130;41.564;23.280;2023-04-15T12:39:12;98370.59;;;20.65;nan
6194;BME280;3130;41.564;23.280;2023-04-15T12:41:39;98370.38;;;20.75;nan
6194;BME280;3130;41.564;23.280;2023-04-15T12:44:06;98348.09;;;20.72;nan
6194;BME280;3130;41.564;23.280;2023-04-15T12:46:35;98368.75;;;20.74;nan
6194;BME280;3130;41.564;23.280;2023-04-15T12:49:02;98355.56;;;20.75;nan
6194;BME280;3130;41.564;23.280;2023-04-15T12:51:29;98351.03;;;20.69;nan
6194;BME280;3130;41.564;23.280;2023-04-15T12:53:57;98346.97;;;20.67;nan
6194;BME280;3130;41.564;23.280;2023-04-15T12:56:24;98338.50;;;20.65;nan
6194;BME280;3130;41.564;23.280;2023-04-15T12:58:51;98348.91;;;20.81;nan
6194;BME280;3130;41.564;23.280;2023-04-15T13:01:18;98340.28;;;20.80;nan
6194;BME280;3130;41.564;23.280;2023-04-15T13:03:47;98332.84;;;21.00;nan
6194;BME280;3130;41.564;23.280;2023-04-15T13:06:16;98348.94;;;21.11;nan
6194;BME280;3130;41.564;23.280;2023-04-15T13:08:43;98235.53;;;20.46;nan
6194;BME280;3130;41.564;23.280;2023-04-15T13:11:10;98341.41;;;21.16;nan
6194;BME280;3130;41.564;23.280;2023-04-15T13:13:56;98332.72;;;21.24;nan
6194;BME280;3130;41.564;23.280;2023-04-15T13:16:23;98335.03;;;21.19;nan
6194;BME280;3130;41.564;23.280;2023-04-15T13:18:52;98335.91;;;21.11;nan
6194;BME280;3130;41.564;23.280;2023-04-15T13:21:19;98275.28;;;20.79;nan
6194;BME280;3130;41.564;23.280;2023-04-15T13:23:47;98297.03;;;20.94;nan
6194;BME280;3130;41.564;23.280;2023-04-15T13:26:14;98327.22;;;21.19;nan
6194;BME280;3130;41.564;23.280;2023-04-15T13:28:41;98330.88;;;21.32;nan
6194;BME280;3130;41.564;23.280;2023-04-15T13:31:08;98323.41;;;21.29;nan
6194;BME280;3130;41.564;23.280;2023-04-15T13:33:35;98311.53;;;21.49;nan
6194;BME280;3130;41.564;23.280;2023-04-15T13:36:05;98318.72;;;21.47;nan
6194;BME280;3130;41.564;23.280;2023-04-15T13:38:32;98318.31;;;21.35;nan
6194;BME280;3130;41.564;23.280;2023-04-15T13:40:59;98309.63;;;21.13;nan
6194;BME280;3130;41.564;23.280;2023-04-15T13:43:26;98304.75;;;21.10;nan
6194;BME280;3130;41.564;23.280;2023-04-15T13:45:53;98303.31;;;21.07;nan
6194;BME280;3130;41.564;23.280;2023-04-15T13:48:21;98263.06;;;20.71;nan